Terminal Aerodrome Forecast
Issued by NWS

Current Version | Previous Version | Text Only | Print | Product List | Glossary Off
Versions: 1 2 3 4 5 6 7 8 9 10 11 12 13 14 15

572
FTUS41 KPBZ 051124
TAFMGW
TAF
KMGW 051124Z 0512/0612 28008KT P6SM OVC025
      TEMPO 0512/0514 OVC015
     FM051800 28006KT P6SM BKN040
     FM060800 10006KT P6SM BKN200=

USA.gov is the U.S. government's official web portal to all federal, state and local government web resources and services.